sensor_id;sensor_type;location;lat;lon;timestamp;P1;durP1;ratioP1;P2;durP2;ratioP2
80138;SDS011;69467;59.842;17.604;2023-07-20T00:01:45;1.00;;;0.82;;
80138;SDS011;69467;59.842;17.604;2023-07-20T00:04:11;3.47;;;0.80;;
80138;SDS011;69467;59.842;17.604;2023-07-20T00:06:38;1.05;;;0.70;;
80138;SDS011;69467;59.842;17.604;2023-07-20T00:09:05;0.88;;;0.50;;
80138;SDS011;69467;59.842;17.604;2023-07-20T00:11:31;2.38;;;0.90;;
80138;SDS011;69467;59.842;17.604;2023-07-20T00:13:56;3.03;;;0.68;;
80138;SDS011;69467;59.842;17.604;2023-07-20T00:16:21;0.65;;;0.47;;
80138;SDS011;69467;59.842;17.604;2023-07-20T00:18:47;0.63;;;0.63;;
80138;SDS011;69467;59.842;17.604;2023-07-20T00:21:12;0.98;;;0.50;;
80138;SDS011;69467;59.842;17.604;2023-07-20T00:23:38;3.00;;;0.50;;
80138;SDS011;69467;59.842;17.604;2023-07-20T00:26:03;2.72;;;0.52;;
80138;SDS011;69467;59.842;17.604;2023-07-20T00:28:29;1.30;;;0.30;;
80138;SDS011;69467;59.842;17.604;2023-07-20T00:30:54;0.85;;;0.65;;
80138;SDS011;69467;59.842;17.604;2023-07-20T00:33:19;1.23;;;0.68;;
80138;SDS011;69467;59.842;17.604;2023-07-20T00:35:45;1.85;;;0.90;;
80138;SDS011;69467;59.842;17.604;2023-07-20T00:38:10;0.80;;;0.45;;
80138;SDS011;69467;59.842;17.604;2023-07-20T00:40:39;1.33;;;0.20;;
80138;SDS011;69467;59.842;17.604;2023-07-20T00:43:05;2.75;;;0.63;;
80138;SDS011;69467;59.842;17.604;2023-07-20T00:45:31;4.22;;;0.70;;
80138;SDS011;69467;59.842;17.604;2023-07-20T00:47:58;0.75;;;0.50;;
80138;SDS011;69467;59.842;17.604;2023-07-20T00:50:24;1.05;;;0.60;;
80138;SDS011;69467;59.842;17.604;2023-07-20T00:52:51;0.57;;;0.45;;
80138;SDS011;69467;59.842;17.604;2023-07-20T00:55:17;0.70;;;0.60;;
80138;SDS011;69467;59.842;17.604;2023-07-20T00:57:43;2.20;;;0.60;;
80138;SDS011;69467;59.842;17.604;2023-07-20T01:00:09;1.40;;;0.63;;
80138;SDS011;69467;59.842;17.604;2023-07-20T01:05:01;1.25;;;0.50;;
80138;SDS011;69467;59.842;17.604;2023-07-20T01:07:31;16.20;;;1.45;;
80138;SDS011;69467;59.842;17.604;2023-07-20T01:10:05;0.98;;;0.75;;
80138;SDS011;69467;59.842;17.604;2023-07-20T01:12:46;1.23;;;0.80;;
80138;SDS011;69467;59.842;17.604;2023-07-20T01:15:13;1.27;;;0.55;;
80138;SDS011;69467;59.842;17.604;2023-07-20T01:17:38;2.42;;;0.77;;
80138;SDS011;69467;59.842;17.604;2023-07-20T01:20:05;16.92;;;2.38;;
80138;SDS011;69467;59.842;17.604;2023-07-20T01:22:51;0.93;;;0.43;;
80138;SDS011;69467;59.842;17.604;2023-07-20T01:25:37;3.35;;;0.95;;
80138;SDS011;69467;59.842;17.604;2023-07-20T01:31:30;2.90;;;0.93;;
80138;SDS011;69467;59.842;17.604;2023-07-20T01:34:00;2.35;;;0.60;;
80138;SDS011;69467;59.842;17.604;2023-07-20T01:36:28;1.77;;;1.08;;
80138;SDS011;69467;59.842;17.604;2023-07-20T01:38:56;1.88;;;0.73;;
80138;SDS011;69467;59.842;17.604;2023-07-20T01:43:47;6.05;;;0.77;;
80138;SDS011;69467;59.842;17.604;2023-07-20T01:46:12;4.82;;;1.00;;
80138;SDS011;69467;59.842;17.604;2023-07-20T01:48:38;1.40;;;0.80;;
80138;SDS011;69467;59.842;17.604;2023-07-20T01:51:03;2.25;;;0.88;;
80138;SDS011;69467;59.842;17.604;2023-07-20T01:53:29;4.97;;;1.65;;
80138;SDS011;69467;59.842;17.604;2023-07-20T01:55:54;3.08;;;0.52;;
80138;SDS011;69467;59.842;17.604;2023-07-20T01:58:20;2.70;;;0.80;;
80138;SDS011;69467;59.842;17.604;2023-07-20T02:00:46;3.90;;;0.80;;
80138;SDS011;69467;59.842;17.604;2023-07-20T02:03:11;6.00;;;1.95;;
80138;SDS011;69467;59.842;17.604;2023-07-20T02:05:37;2.22;;;0.75;;
80138;SDS011;69467;59.842;17.604;2023-07-20T02:08:02;3.25;;;1.00;;
80138;SDS011;69467;59.842;17.604;2023-07-20T02:10:28;3.47;;;0.95;;
80138;SDS011;69467;59.842;17.604;2023-07-20T02:12:53;3.97;;;1.20;;
80138;SDS011;69467;59.842;17.604;2023-07-20T02:15:19;5.13;;;1.80;;
80138;SDS011;69467;59.842;17.604;2023-07-20T02:17:45;9.05;;;1.95;;
80138;SDS011;69467;59.842;17.604;2023-07-20T02:20:10;4.13;;;1.00;;
80138;SDS011;69467;59.842;17.604;2023-07-20T02:22:36;3.15;;;1.10;;
80138;SDS011;69467;59.842;17.604;2023-07-20T02:25:06;4.32;;;0.75;;
80138;SDS011;69467;59.842;17.604;2023-07-20T02:27:35;2.00;;;1.30;;
80138;SDS011;69467;59.842;17.604;2023-07-20T02:30:01;2.40;;;1.40;;
80138;SDS011;69467;59.842;17.604;2023-07-20T02:32:27;2.78;;;0.80;;
80138;SDS011;69467;59.842;17.604;2023-07-20T02:34:53;5.35;;;1.42;;
80138;SDS011;69467;59.842;17.604;2023-07-20T02:37:18;3.22;;;0.88;;
80138;SDS011;69467;59.842;17.604;2023-07-20T02:39:44;4.38;;;0.85;;
80138;SDS011;69467;59.842;17.604;2023-07-20T02:42:09;3.08;;;0.95;;
80138;SDS011;69467;59.842;17.604;2023-07-20T02:44:35;4.72;;;1.67;;
80138;SDS011;69467;59.842;17.604;2023-07-20T02:47:00;4.50;;;1.45;;
80138;SDS011;69467;59.842;17.604;2023-07-20T02:49:26;8.15;;;1.95;;
80138;SDS011;69467;59.842;17.604;2023-07-20T02:54:17;4.13;;;1.08;;
80138;SDS011;69467;59.842;17.604;2023-07-20T02:56:43;7.80;;;1.20;;
80138;SDS011;69467;59.842;17.604;2023-07-20T02:59:08;2.72;;;1.15;;
80138;SDS011;69467;59.842;17.604;2023-07-20T03:01:34;3.90;;;1.17;;
80138;SDS011;69467;59.842;17.604;2023-07-20T03:03:59;4.65;;;1.17;;
80138;SDS011;69467;59.842;17.604;2023-07-20T03:06:25;5.25;;;2.30;;
80138;SDS011;69467;59.842;17.604;2023-07-20T03:08:50;1.20;;;0.63;;
80138;SDS011;69467;59.842;17.604;2023-07-20T03:11:17;4.43;;;1.00;;
80138;SDS011;69467;59.842;17.604;2023-07-20T03:13:43;4.35;;;1.60;;
80138;SDS011;69467;59.842;17.604;2023-07-20T03:18:40;4.90;;;1.70;;
80138;SDS011;69467;59.842;17.604;2023-07-20T03:21:07;4.28;;;1.35;;
80138;SDS011;69467;59.842;17.604;2023-07-20T03:23:33;4.85;;;1.63;;
80138;SDS011;69467;59.842;17.604;2023-07-20T03:26:00;3.55;;;1.25;;
80138;SDS011;69467;59.842;17.604;2023-07-20T03:30:54;3.08;;;1.10;;
80138;SDS011;69467;59.842;17.604;2023-07-20T03:33:24;1.80;;;1.33;;
80138;SDS011;69467;59.842;17.604;2023-07-20T03:35:51;3.20;;;1.20;;
80138;SDS011;69467;59.842;17.604;2023-07-20T03:38:16;5.50;;;1.67;;
80138;SDS011;69467;59.842;17.604;2023-07-20T03:41:00;11.30;;;1.83;;
80138;SDS011;69467;59.842;17.604;2023-07-20T03:43:26;4.32;;;1.52;;
80138;SDS011;69467;59.842;17.604;2023-07-20T03:45:53;5.07;;;0.90;;
80138;SDS011;69467;59.842;17.604;2023-07-20T03:48:19;4.32;;;1.08;;
80138;SDS011;69467;59.842;17.604;2023-07-20T03:50:47;5.35;;;1.70;;
80138;SDS011;69467;59.842;17.604;2023-07-20T03:53:14;1.67;;;1.00;;
80138;SDS011;69467;59.842;17.604;2023-07-20T03:55:50;2.35;;;1.15;;
80138;SDS011;69467;59.842;17.604;2023-07-20T03:58:17;2.78;;;1.15;;
80138;SDS011;69467;59.842;17.604;2023-07-20T04:00:47;8.63;;;1.65;;
80138;SDS011;69467;59.842;17.604;2023-07-20T04:03:13;1.35;;;1.25;;
80138;SDS011;69467;59.842;17.604;2023-07-20T04:05:39;2.28;;;1.63;;
80138;SDS011;69467;59.842;17.604;2023-07-20T04:08:05;9.35;;;2.72;;
80138;SDS011;69467;59.842;17.604;2023-07-20T04:10:30;7.35;;;1.80;;
80138;SDS011;69467;59.842;17.604;2023-07-20T04:12:56;6.18;;;1.42;;
80138;SDS011;69467;59.842;17.604;2023-07-20T04:15:21;6.35;;;1.52;;
80138;SDS011;69467;59.842;17.604;2023-07-20T04:17:47;6.43;;;1.60;;
80138;SDS011;69467;59.842;17.604;2023-07-20T04:20:12;7.45;;;2.35;;
80138;SDS011;69467;59.842;17.604;2023-07-20T04:22:38;8.60;;;1.98;;
80138;SDS011;69467;59.842;17.604;2023-07-20T04:25:04;4.35;;;2.05;;
80138;SDS011;69467;59.842;17.604;2023-07-20T04:27:29;6.20;;;1.20;;
80138;SDS011;69467;59.842;17.604;2023-07-20T04:29:55;2.72;;;1.92;;
80138;SDS011;69467;59.842;17.604;2023-07-20T04:32:23;3.83;;;1.63;;
80138;SDS011;69467;59.842;17.604;2023-07-20T04:34:50;7.63;;;1.92;;
80138;SDS011;69467;59.842;17.604;2023-07-20T04:37:15;2.28;;;1.30;;
80138;SDS011;69467;59.842;17.604;2023-07-20T04:39:40;4.93;;;1.40;;
80138;SDS011;69467;59.842;17.604;2023-07-20T04:42:06;4.30;;;1.63;;
80138;SDS011;69467;59.842;17.604;2023-07-20T04:44:31;3.65;;;1.55;;
80138;SDS011;69467;59.842;17.604;2023-07-20T04:46:57;11.95;;;2.20;;
80138;SDS011;69467;59.842;17.604;2023-07-20T04:49:22;5.80;;;1.83;;
80138;SDS011;69467;59.842;17.604;2023-07-20T04:51:48;5.85;;;2.65;;
80138;SDS011;69467;59.842;17.604;2023-07-20T04:54:13;4.82;;;1.67;;
80138;SDS011;69467;59.842;17.604;2023-07-20T04:56:39;7.45;;;3.25;;
80138;SDS011;69467;59.842;17.604;2023-07-20T04:59:04;14.18;;;2.65;;
80138;SDS011;69467;59.842;17.604;2023-07-20T05:01:29;4.30;;;2.58;;
80138;SDS011;69467;59.842;17.604;2023-07-20T05:03:55;4.05;;;1.83;;
80138;SDS011;69467;59.842;17.604;2023-07-20T05:06:20;5.50;;;1.42;;
80138;SDS011;69467;59.842;17.604;2023-07-20T05:08:46;3.35;;;2.17;;
80138;SDS011;69467;59.842;17.604;2023-07-20T05:11:11;7.88;;;2.25;;
80138;SDS011;69467;59.842;17.604;2023-07-20T05:13:37;4.68;;;1.55;;
80138;SDS011;69467;59.842;17.604;2023-07-20T05:16:02;9.05;;;1.92;;
80138;SDS011;69467;59.842;17.604;2023-07-20T05:18:28;15.23;;;2.70;;
80138;SDS011;69467;59.842;17.604;2023-07-20T05:20:53;12.15;;;2.35;;
80138;SDS011;69467;59.842;17.604;2023-07-20T05:23:20;9.75;;;2.20;;
80138;SDS011;69467;59.842;17.604;2023-07-20T05:25:46;10.45;;;1.65;;
80138;SDS011;69467;59.842;17.604;2023-07-20T05:28:11;8.15;;;2.17;;
80138;SDS011;69467;59.842;17.604;2023-07-20T05:33:02;4.80;;;2.10;;
80138;SDS011;69467;59.842;17.604;2023-07-20T05:35:28;5.72;;;1.65;;
80138;SDS011;69467;59.842;17.604;2023-07-20T05:40:19;12.77;;;1.87;;
80138;SDS011;69467;59.842;17.604;2023-07-20T05:42:46;8.05;;;2.42;;
80138;SDS011;69467;59.842;17.604;2023-07-20T05:45:12;8.68;;;2.10;;
80138;SDS011;69467;59.842;17.604;2023-07-20T05:47:37;9.45;;;2.33;;
80138;SDS011;69467;59.842;17.604;2023-07-20T05:54:54;5.40;;;1.73;;
80138;SDS011;69467;59.842;17.604;2023-07-20T05:57:19;5.10;;;2.25;;
80138;SDS011;69467;59.842;17.604;2023-07-20T05:59:45;7.95;;;2.17;;
80138;SDS011;69467;59.842;17.604;2023-07-20T06:02:10;3.55;;;2.55;;
80138;SDS011;69467;59.842;17.604;2023-07-20T06:07:01;6.45;;;2.92;;
80138;SDS011;69467;59.842;17.604;2023-07-20T06:14:18;6.13;;;1.80;;
80138;SDS011;69467;59.842;17.604;2023-07-20T06:16:43;5.68;;;1.77;;
80138;SDS011;69467;59.842;17.604;2023-07-20T06:19:09;8.82;;;1.75;;
80138;SDS011;69467;59.842;17.604;2023-07-20T06:21:37;6.93;;;2.15;;
80138;SDS011;69467;59.842;17.604;2023-07-20T06:28:55;7.30;;;1.92;;
80138;SDS011;69467;59.842;17.604;2023-07-20T06:33:46;5.97;;;2.30;;
80138;SDS011;69467;59.842;17.604;2023-07-20T06:38:37;4.55;;;1.80;;
80138;SDS011;69467;59.842;17.604;2023-07-20T06:41:02;5.97;;;2.17;;
80138;SDS011;69467;59.842;17.604;2023-07-20T06:43:27;5.82;;;3.58;;
80138;SDS011;69467;59.842;17.604;2023-07-20T06:45:53;10.80;;;2.05;;
80138;SDS011;69467;59.842;17.604;2023-07-20T06:48:19;4.25;;;2.28;;
80138;SDS011;69467;59.842;17.604;2023-07-20T06:55:35;2.40;;;1.37;;
80138;SDS011;69467;59.842;17.604;2023-07-20T06:58:00;6.65;;;1.80;;
80138;SDS011;69467;59.842;17.604;2023-07-20T07:02:51;10.60;;;1.50;;
80138;SDS011;69467;59.842;17.604;2023-07-20T07:05:17;6.32;;;1.75;;
80138;SDS011;69467;59.842;17.604;2023-07-20T07:07:43;11.68;;;3.05;;
80138;SDS011;69467;59.842;17.604;2023-07-20T07:12:34;3.10;;;1.27;;
80138;SDS011;69467;59.842;17.604;2023-07-20T07:15:00;3.42;;;1.70;;
80138;SDS011;69467;59.842;17.604;2023-07-20T07:17:26;4.32;;;2.15;;
80138;SDS011;69467;59.842;17.604;2023-07-20T07:22:19;4.80;;;1.75;;
80138;SDS011;69467;59.842;17.604;2023-07-20T07:24:46;10.07;;;1.35;;
80138;SDS011;69467;59.842;17.604;2023-07-20T07:32:02;13.77;;;2.50;;
80138;SDS011;69467;59.842;17.604;2023-07-20T07:34:28;3.50;;;1.50;;
80138;SDS011;69467;59.842;17.604;2023-07-20T07:41:44;5.57;;;1.67;;
80138;SDS011;69467;59.842;17.604;2023-07-20T07:46:35;5.13;;;1.70;;
80138;SDS011;69467;59.842;17.604;2023-07-20T07:51:26;6.80;;;1.70;;
80138;SDS011;69467;59.842;17.604;2023-07-20T07:53:52;1.38;;;1.10;;
80138;SDS011;69467;59.842;17.604;2023-07-20T07:58:47;1.83;;;1.33;;
80138;SDS011;69467;59.842;17.604;2023-07-20T08:03:38;5.65;;;2.03;;
80138;SDS011;69467;59.842;17.604;2023-07-20T08:10:54;5.60;;;1.60;;
80138;SDS011;69467;59.842;17.604;2023-07-20T08:15:46;8.55;;;1.85;;
80138;SDS011;69467;59.842;17.604;2023-07-20T08:18:15;5.53;;;1.60;;
80138;SDS011;69467;59.842;17.604;2023-07-20T08:23:08;4.18;;;1.30;;
80138;SDS011;69467;59.842;17.604;2023-07-20T08:25:36;4.15;;;1.55;;
80138;SDS011;69467;59.842;17.604;2023-07-20T08:28:04;3.30;;;1.35;;
80138;SDS011;69467;59.842;17.604;2023-07-20T08:33:04;1.65;;;1.15;;
80138;SDS011;69467;59.842;17.604;2023-07-20T08:37:55;3.70;;;1.48;;
80138;SDS011;69467;59.842;17.604;2023-07-20T08:42:45;3.03;;;2.03;;
80138;SDS011;69467;59.842;17.604;2023-07-20T08:47:38;3.33;;;1.70;;
80138;SDS011;69467;59.842;17.604;2023-07-20T08:50:06;4.05;;;1.13;;
80138;SDS011;69467;59.842;17.604;2023-07-20T08:52:33;2.88;;;1.50;;
80138;SDS011;69467;59.842;17.604;2023-07-20T08:54:59;1.38;;;1.05;;
80138;SDS011;69467;59.842;17.604;2023-07-20T08:57:28;2.78;;;1.67;;
80138;SDS011;69467;59.842;17.604;2023-07-20T09:02:20;6.30;;;1.30;;
80138;SDS011;69467;59.842;17.604;2023-07-20T09:04:50;4.18;;;0.85;;
80138;SDS011;69467;59.842;17.604;2023-07-20T09:09:41;3.55;;;1.25;;
80138;SDS011;69467;59.842;17.604;2023-07-20T09:14:44;3.35;;;1.50;;
80138;SDS011;69467;59.842;17.604;2023-07-20T09:17:13;2.40;;;1.10;;
80138;SDS011;69467;59.842;17.604;2023-07-20T09:19:45;3.67;;;1.10;;
80138;SDS011;69467;59.842;17.604;2023-07-20T09:22:11;3.10;;;0.80;;
80138;SDS011;69467;59.842;17.604;2023-07-20T09:24:36;2.17;;;1.25;;
80138;SDS011;69467;59.842;17.604;2023-07-20T09:29:30;3.80;;;0.75;;
80138;SDS011;69467;59.842;17.604;2023-07-20T09:32:02;5.75;;;1.17;;
80138;SDS011;69467;59.842;17.604;2023-07-20T09:34:29;3.35;;;1.10;;
80138;SDS011;69467;59.842;17.604;2023-07-20T09:36:58;6.00;;;0.95;;
80138;SDS011;69467;59.842;17.604;2023-07-20T09:39:25;4.07;;;0.85;;
80138;SDS011;69467;59.842;17.604;2023-07-20T09:41:51;1.92;;;0.73;;
80138;SDS011;69467;59.842;17.604;2023-07-20T09:46:46;2.45;;;0.93;;
80138;SDS011;69467;59.842;17.604;2023-07-20T09:49:13;4.55;;;0.93;;
80138;SDS011;69467;59.842;17.604;2023-07-20T09:51:39;4.85;;;0.93;;
80138;SDS011;69467;59.842;17.604;2023-07-20T09:54:05;1.90;;;1.02;;
80138;SDS011;69467;59.842;17.604;2023-07-20T09:56:31;5.60;;;1.10;;
80138;SDS011;69467;59.842;17.604;2023-07-20T09:58:58;5.95;;;0.95;;
80138;SDS011;69467;59.842;17.604;2023-07-20T10:03:53;3.83;;;2.38;;
80138;SDS011;69467;59.842;17.604;2023-07-20T10:06:20;6.43;;;4.55;;
80138;SDS011;69467;59.842;17.604;2023-07-20T10:08:50;0.82;;;0.68;;
80138;SDS011;69467;59.842;17.604;2023-07-20T10:11:18;2.95;;;0.80;;
80138;SDS011;69467;59.842;17.604;2023-07-20T10:13:47;3.10;;;0.65;;
80138;SDS011;69467;59.842;17.604;2023-07-20T10:16:22;2.65;;;0.90;;
80138;SDS011;69467;59.842;17.604;2023-07-20T10:19:02;2.95;;;1.30;;
80138;SDS011;69467;59.842;17.604;2023-07-20T10:21:31;3.63;;;0.70;;
80138;SDS011;69467;59.842;17.604;2023-07-20T10:24:00;1.40;;;0.57;;
80138;SDS011;69467;59.842;17.604;2023-07-20T10:26:26;1.23;;;0.50;;
80138;SDS011;69467;59.842;17.604;2023-07-20T10:28:51;1.83;;;0.60;;
80138;SDS011;69467;59.842;17.604;2023-07-20T10:31:18;1.00;;;0.90;;
80138;SDS011;69467;59.842;17.604;2023-07-20T10:33:44;1.75;;;0.50;;
80138;SDS011;69467;59.842;17.604;2023-07-20T10:36:11;5.40;;;0.90;;
80138;SDS011;69467;59.842;17.604;2023-07-20T10:49:05;0.80;;;0.65;;
80138;SDS011;69467;59.842;17.604;2023-07-20T10:51:49;4.88;;;0.95;;
80138;SDS011;69467;59.842;17.604;2023-07-20T10:56:54;0.98;;;0.40;;
80138;SDS011;69467;59.842;17.604;2023-07-20T11:01:49;1.63;;;0.70;;
80138;SDS011;69467;59.842;17.604;2023-07-20T11:04:16;0.90;;;0.57;;
80138;SDS011;69467;59.842;17.604;2023-07-20T11:06:54;2.65;;;1.05;;
80138;SDS011;69467;59.842;17.604;2023-07-20T11:09:22;3.00;;;0.80;;
80138;SDS011;69467;59.842;17.604;2023-07-20T11:11:50;0.85;;;0.47;;
80138;SDS011;69467;59.842;17.604;2023-07-20T11:14:25;0.90;;;0.60;;
80138;SDS011;69467;59.842;17.604;2023-07-20T11:16:52;0.60;;;0.60;;
80138;SDS011;69467;59.842;17.604;2023-07-20T11:21:58;0.90;;;0.60;;
80138;SDS011;69467;59.842;17.604;2023-07-20T11:24:24;1.45;;;0.65;;
80138;SDS011;69467;59.842;17.604;2023-07-20T11:26:50;1.25;;;0.60;;
80138;SDS011;69467;59.842;17.604;2023-07-20T11:29:16;1.45;;;0.30;;
80138;SDS011;69467;59.842;17.604;2023-07-20T11:31:43;0.73;;;0.40;;
80138;SDS011;69467;59.842;17.604;2023-07-20T11:34:13;1.73;;;0.82;;
80138;SDS011;69467;59.842;17.604;2023-07-20T11:36:40;0.77;;;0.40;;
80138;SDS011;69467;59.842;17.604;2023-07-20T11:39:07;0.73;;;0.73;;
80138;SDS011;69467;59.842;17.604;2023-07-20T11:41:37;1.67;;;1.58;;
80138;SDS011;69467;59.842;17.604;2023-07-20T11:44:06;1.40;;;0.38;;
80138;SDS011;69467;59.842;17.604;2023-07-20T11:46:32;3.45;;;1.00;;
80138;SDS011;69467;59.842;17.604;2023-07-20T11:48:59;0.60;;;0.30;;
80138;SDS011;69467;59.842;17.604;2023-07-20T11:51:25;0.93;;;0.50;;
80138;SDS011;69467;59.842;17.604;2023-07-20T11:53:52;1.25;;;0.55;;
80138;SDS011;69467;59.842;17.604;2023-07-20T11:56:18;0.60;;;0.50;;
80138;SDS011;69467;59.842;17.604;2023-07-20T11:58:44;3.97;;;0.80;;
80138;SDS011;69467;59.842;17.604;2023-07-20T12:01:11;0.88;;;0.65;;
80138;SDS011;69467;59.842;17.604;2023-07-20T12:03:41;0.98;;;0.88;;
80138;SDS011;69467;59.842;17.604;2023-07-20T12:06:10;1.77;;;0.50;;
80138;SDS011;69467;59.842;17.604;2023-07-20T12:08:40;2.78;;;0.73;;
80138;SDS011;69467;59.842;17.604;2023-07-20T12:11:07;1.50;;;0.50;;
80138;SDS011;69467;59.842;17.604;2023-07-20T12:13:40;2.25;;;1.20;;
80138;SDS011;69467;59.842;17.604;2023-07-20T12:16:14;1.23;;;0.77;;
80138;SDS011;69467;59.842;17.604;2023-07-20T12:18:42;1.70;;;0.60;;
80138;SDS011;69467;59.842;17.604;2023-07-20T12:21:08;1.85;;;0.70;;
80138;SDS011;69467;59.842;17.604;2023-07-20T12:23:35;1.65;;;0.50;;
80138;SDS011;69467;59.842;17.604;2023-07-20T12:26:03;1.08;;;0.75;;
80138;SDS011;69467;59.842;17.604;2023-07-20T12:28:30;2.00;;;0.68;;
80138;SDS011;69467;59.842;17.604;2023-07-20T12:30:56;1.33;;;0.60;;
80138;SDS011;69467;59.842;17.604;2023-07-20T12:35:47;1.23;;;0.73;;
80138;SDS011;69467;59.842;17.604;2023-07-20T12:38:14;1.48;;;0.43;;
80138;SDS011;69467;59.842;17.604;2023-07-20T12:40:39;0.35;;;0.30;;
80138;SDS011;69467;59.842;17.604;2023-07-20T12:43:05;1.98;;;0.50;;
80138;SDS011;69467;59.842;17.604;2023-07-20T12:45:31;0.50;;;0.20;;
80138;SDS011;69467;59.842;17.604;2023-07-20T12:47:57;0.60;;;0.45;;
80138;SDS011;69467;59.842;17.604;2023-07-20T12:50:22;0.88;;;0.20;;
80138;SDS011;69467;59.842;17.604;2023-07-20T12:52:48;1.13;;;0.52;;
80138;SDS011;69467;59.842;17.604;2023-07-20T12:55:13;5.60;;;1.77;;
80138;SDS011;69467;59.842;17.604;2023-07-20T12:57:38;1.73;;;0.90;;
80138;SDS011;69467;59.842;17.604;2023-07-20T13:00:06;2.17;;;0.63;;
80138;SDS011;69467;59.842;17.604;2023-07-20T13:02:34;1.00;;;0.57;;
80138;SDS011;69467;59.842;17.604;2023-07-20T13:05:01;2.78;;;0.40;;
80138;SDS011;69467;59.842;17.604;2023-07-20T13:07:30;1.00;;;0.40;;
80138;SDS011;69467;59.842;17.604;2023-07-20T13:09:57;0.60;;;0.60;;
80138;SDS011;69467;59.842;17.604;2023-07-20T13:12:25;0.75;;;0.38;;
80138;SDS011;69467;59.842;17.604;2023-07-20T13:14:51;0.88;;;0.68;;
80138;SDS011;69467;59.842;17.604;2023-07-20T13:17:16;0.80;;;0.47;;
80138;SDS011;69467;59.842;17.604;2023-07-20T13:19:41;1.70;;;0.90;;
80138;SDS011;69467;59.842;17.604;2023-07-20T13:22:07;0.93;;;0.43;;
80138;SDS011;69467;59.842;17.604;2023-07-20T13:24:32;1.50;;;0.47;;
80138;SDS011;69467;59.842;17.604;2023-07-20T13:26:58;0.75;;;0.35;;
80138;SDS011;69467;59.842;17.604;2023-07-20T13:29:23;1.17;;;0.30;;
80138;SDS011;69467;59.842;17.604;2023-07-20T13:31:50;0.88;;;0.45;;
80138;SDS011;69467;59.842;17.604;2023-07-20T13:34:15;2.35;;;0.55;;
80138;SDS011;69467;59.842;17.604;2023-07-20T13:36:40;0.70;;;0.30;;
80138;SDS011;69467;59.842;17.604;2023-07-20T13:39:06;1.50;;;0.82;;
80138;SDS011;69467;59.842;17.604;2023-07-20T13:41:32;0.85;;;0.70;;
80138;SDS011;69467;59.842;17.604;2023-07-20T13:43:58;0.55;;;0.40;;
80138;SDS011;69467;59.842;17.604;2023-07-20T13:46:23;2.15;;;0.50;;
80138;SDS011;69467;59.842;17.604;2023-07-20T13:48:49;1.25;;;0.52;;
80138;SDS011;69467;59.842;17.604;2023-07-20T13:51:14;0.82;;;0.40;;
80138;SDS011;69467;59.842;17.604;2023-07-20T13:53:39;0.80;;;0.40;;
80138;SDS011;69467;59.842;17.604;2023-07-20T13:56:05;0.85;;;0.30;;
80138;SDS011;69467;59.842;17.604;2023-07-20T13:58:32;1.20;;;0.50;;
80138;SDS011;69467;59.842;17.604;2023-07-20T14:00:57;0.32;;;0.30;;
80138;SDS011;69467;59.842;17.604;2023-07-20T14:03:23;1.38;;;0.40;;
80138;SDS011;69467;59.842;17.604;2023-07-20T14:05:49;0.35;;;0.13;;
80138;SDS011;69467;59.842;17.604;2023-07-20T14:08:15;1.13;;;0.77;;
80138;SDS011;69467;59.842;17.604;2023-07-20T14:10:41;0.88;;;0.40;;
80138;SDS011;69467;59.842;17.604;2023-07-20T14:13:06;1.38;;;0.43;;
80138;SDS011;69467;59.842;17.604;2023-07-20T14:15:32;0.60;;;0.40;;
80138;SDS011;69467;59.842;17.604;2023-07-20T14:17:58;2.35;;;0.50;;
80138;SDS011;69467;59.842;17.604;2023-07-20T14:20:23;0.90;;;0.40;;
80138;SDS011;69467;59.842;17.604;2023-07-20T14:22:49;0.68;;;0.40;;
80138;SDS011;69467;59.842;17.604;2023-07-20T14:25:14;0.77;;;0.22;;
80138;SDS011;69467;59.842;17.604;2023-07-20T14:27:40;0.10;;;0.10;;
80138;SDS011;69467;59.842;17.604;2023-07-20T14:30:06;0.20;;;0.17;;
80138;SDS011;69467;59.842;17.604;2023-07-20T14:32:32;1.88;;;0.30;;
80138;SDS011;69467;59.842;17.604;2023-07-20T14:34:58;0.30;;;0.30;;
80138;SDS011;69467;59.842;17.604;2023-07-20T14:37:24;0.10;;;0.10;;
80138;SDS011;69467;59.842;17.604;2023-07-20T14:39:49;0.73;;;0.20;;
80138;SDS011;69467;59.842;17.604;2023-07-20T14:42:15;0.22;;;0.13;;
80138;SDS011;69467;59.842;17.604;2023-07-20T14:44:40;0.63;;;0.13;;
80138;SDS011;69467;59.842;17.604;2023-07-20T14:47:05;0.30;;;0.20;;
80138;SDS011;69467;59.842;17.604;2023-07-20T14:49:31;1.33;;;0.17;;
80138;SDS011;69467;59.842;17.604;2023-07-20T14:51:56;0.40;;;0.10;;
80138;SDS011;69467;59.842;17.604;2023-07-20T14:54:22;1.02;;;0.20;;
80138;SDS011;69467;59.842;17.604;2023-07-20T14:56:50;0.20;;;0.20;;
80138;SDS011;69467;59.842;17.604;2023-07-20T14:59:19;0.20;;;0.20;;
80138;SDS011;69467;59.842;17.604;2023-07-20T15:01:45;7.45;;;0.65;;
80138;SDS011;69467;59.842;17.604;2023-07-20T15:04:11;0.35;;;0.17;;
80138;SDS011;69467;59.842;17.604;2023-07-20T15:06:37;0.40;;;0.17;;
80138;SDS011;69467;59.842;17.604;2023-07-20T15:09:02;1.38;;;0.60;;
80138;SDS011;69467;59.842;17.604;2023-07-20T15:11:29;0.10;;;0.10;;
80138;SDS011;69467;59.842;17.604;2023-07-20T15:13:54;1.45;;;0.20;;
80138;SDS011;69467;59.842;17.604;2023-07-20T15:16:20;2.40;;;0.50;;
80138;SDS011;69467;59.842;17.604;2023-07-20T15:18:45;1.95;;;0.40;;
80138;SDS011;69467;59.842;17.604;2023-07-20T15:21:11;1.38;;;0.30;;
80138;SDS011;69467;59.842;17.604;2023-07-20T15:23:37;1.20;;;0.28;;
80138;SDS011;69467;59.842;17.604;2023-07-20T15:28:27;2.03;;;0.50;;
80138;SDS011;69467;59.842;17.604;2023-07-20T15:33:25;3.97;;;1.00;;
80138;SDS011;69467;59.842;17.604;2023-07-20T15:35:51;3.90;;;0.80;;
80138;SDS011;69467;59.842;17.604;2023-07-20T15:43:12;3.25;;;0.57;;
80138;SDS011;69467;59.842;17.604;2023-07-20T15:45:37;0.40;;;0.20;;
80138;SDS011;69467;59.842;17.604;2023-07-20T15:50:28;0.60;;;0.40;;
80138;SDS011;69467;59.842;17.604;2023-07-20T15:52:53;2.28;;;0.50;;
80138;SDS011;69467;59.842;17.604;2023-07-20T16:00:09;0.23;;;0.23;;
80138;SDS011;69467;59.842;17.604;2023-07-20T16:02:35;2.78;;;0.40;;
80138;SDS011;69467;59.842;17.604;2023-07-20T16:05:02;1.65;;;0.30;;
80138;SDS011;69467;59.842;17.604;2023-07-20T16:07:28;1.75;;;0.47;;
80138;SDS011;69467;59.842;17.604;2023-07-20T16:09:54;1.60;;;0.40;;
80138;SDS011;69467;59.842;17.604;2023-07-20T16:12:23;1.08;;;0.63;;
80138;SDS011;69467;59.842;17.604;2023-07-20T16:14:51;0.93;;;0.43;;
80138;SDS011;69467;59.842;17.604;2023-07-20T16:17:17;1.25;;;0.40;;
80138;SDS011;69467;59.842;17.604;2023-07-20T16:24:36;1.58;;;0.90;;
80138;SDS011;69467;59.842;17.604;2023-07-20T16:29:28;2.47;;;1.40;;
80138;SDS011;69467;59.842;17.604;2023-07-20T16:36:45;2.75;;;0.70;;
80138;SDS011;69467;59.842;17.604;2023-07-20T16:41:35;1.50;;;0.40;;
80138;SDS011;69467;59.842;17.604;2023-07-20T16:46:26;2.13;;;0.70;;
80138;SDS011;69467;59.842;17.604;2023-07-20T16:56:08;1.73;;;0.55;;
80138;SDS011;69467;59.842;17.604;2023-07-20T17:03:29;3.17;;;0.45;;
80138;SDS011;69467;59.842;17.604;2023-07-20T17:05:55;2.20;;;1.42;;
80138;SDS011;69467;59.842;17.604;2023-07-20T17:10:46;2.80;;;1.05;;
80138;SDS011;69467;59.842;17.604;2023-07-20T17:15:39;3.70;;;1.27;;
80138;SDS011;69467;59.842;17.604;2023-07-20T17:20:30;1.52;;;0.60;;
80138;SDS011;69467;59.842;17.604;2023-07-20T17:27:47;2.65;;;0.57;;
80138;SDS011;69467;59.842;17.604;2023-07-20T17:30:13;1.35;;;0.35;;
80138;SDS011;69467;59.842;17.604;2023-07-20T17:35:04;0.80;;;0.65;;
80138;SDS011;69467;59.842;17.604;2023-07-20T17:39:55;2.17;;;0.32;;
80138;SDS011;69467;59.842;17.604;2023-07-20T17:44:46;0.60;;;0.40;;